Time;durP1;ratioP1;P1;durP2;ratioP2;P2;SDS_P1;SDS_P2;PMS_P1;PMS_P2;Temp;Humidity;BMP_temperature;BMP_pressure;BME280_temperature;BME280_humidity;BME280_pressure;Samples;Min_cycle;Max_cycle;Signal;HPM_P1;HPM_P2
2022/07/25 00:00:41;;;;;;;;;;;;;;;;;;5083797;28;19925;-77
2022/07/25 00:03:07;;;;;;;;;;;;;;;;;;5093586;28;20010;-77
2022/07/25 00:05:33;;;;;;;;;;;;;;;;;;5093730;28;19934;-76
2022/07/25 00:08:00;;;;;;;;;;;;;;;;;;5093589;28;19928;-77
2022/07/25 00:10:27;;;;;;;;;;;;;;;;;;5093735;28;19946;-76
2022/07/25 00:12:54;;;;;;;;;;;;;;;;;;5093249;28;19935;-77
2022/07/25 00:15:20;;;;;;;;;;;;;;;;;;5093420;28;19934;-76
2022/07/25 00:17:47;;;;;;;;;;;;;;;;;;5092938;28;19924;-76
2022/07/25 00:20:13;;;;;;;;;;;;;;;;;;5092933;28;20390;-76
2022/07/25 00:22:40;;;;;;;;;;;;;;;;;;5093063;28;19924;-77
2022/07/25 00:25:06;;;;;;;;;;;;;;;;;;5093439;28;19930;-77
2022/07/25 00:27:34;;;;;;;;;;;;;;;;;;5092802;28;19931;-77
2022/07/25 00:30:01;;;;;;;;;;;;;;;;;;5095612;28;19924;-76
2022/07/25 00:32:27;;;;;;;;;;;;;;;;;;5098843;28;19931;-76
2022/07/25 00:34:53;;;;;;;;;;;;;;;;;;5093787;28;19947;-76
2022/07/25 00:37:20;;;;;;;;;;;;;;;;;;5092963;28;19924;-77
2022/07/25 00:39:46;;;;;;;;;;;;;;;;;;5092832;28;19930;-76
2022/07/25 00:42:13;;;;;;;;;;;;;;;;;;5092641;28;20004;-76
2022/07/25 00:44:40;;;;;;;;;;;;;;;;;;5092641;28;20406;-77
2022/07/25 00:47:07;;;;;;;;;;;;;;;;;;5095028;28;19951;-77
2022/07/25 00:49:33;;;;;;;;;;;;;;;;;;5095446;28;19930;-76
2022/07/25 00:52:00;;;;;;;;;;;;;;;;;;5092722;28;19931;-76
2022/07/25 00:54:26;;;;;;;;;;;;;;;;;;5092859;28;19924;-77
2022/07/25 00:56:53;;;;;;;;;;;;;;;;;;5092736;28;19928;-77
2022/07/25 00:59:19;;;;;;;;;;;;;;;;;;5092395;28;20044;-77
2022/07/25 01:01:47;;;;;;;;;;;;;;;;;;5092446;28;19924;-76
2022/07/25 01:04:14;;;;;;;;;;;;;;;;;;5092512;28;20386;-77
2022/07/25 01:06:40;;;;;;;;;;;;;;;;;;5092465;28;19924;-76
2022/07/25 01:12:10;;;;;;;;;;;;;;;;;;5084930;28;20057;-78
2022/07/25 01:14:36;;;;;;;;;;;;;;;;;;5076948;28;19930;-77
2022/07/25 01:17:04;;;;;;;;;;;;;;;;;;5076498;28;20007;-76
2022/07/25 01:19:30;;;;;;;;;;;;;;;;;;5075238;28;19925;-77
2022/07/25 01:21:58;;;;;;;;;;;;;;;;;;5074657;28;19931;-76
2022/07/25 01:24:25;;;;;;;;;;;;;;;;;;5073335;28;20307;-76
2022/07/25 01:26:51;;;;;;;;;;;;;;;;;;5071688;28;19925;-77
2022/07/25 01:29:17;;;;;;;;;;;;;;;;;;5071932;28;19925;-76
2022/07/25 01:31:44;;;;;;;;;;;;;;;;;;5072033;28;20126;-76
2022/07/25 01:34:10;;;;;;;;;;;;;;;;;;5071682;28;19925;-76
2022/07/25 01:36:37;;;;;;;;;;;;;;;;;;5071777;28;19925;-76
2022/07/25 01:39:05;;;;;;;;;;;;;;;;;;5071931;28;20007;-76
2022/07/25 01:41:31;;;;;;;;;;;;;;;;;;5071413;28;19925;-75
2022/07/25 01:43:57;;;;;;;;;;;;;;;;;;5071857;28;19930;-76
2022/07/25 01:46:24;;;;;;;;;;;;;;;;;;5071310;28;19924;-75
2022/07/25 01:48:50;;;;;;;;;;;;;;;;;;5071803;28;19924;-76
2022/07/25 01:51:17;;;;;;;;;;;;;;;;;;5071859;28;19964;-76
2022/07/25 01:53:43;;;;;;;;;;;;;;;;;;5071787;28;20268;-76
2022/07/25 01:56:11;;;;;;;;;;;;;;;;;;5071445;28;20456;-75
2022/07/25 01:58:38;;;;;;;;;;;;;;;;;;5071544;28;19924;-76
2022/07/25 02:01:04;;;;;;;;;;;;;;;;;;5071395;28;19935;-76
2022/07/25 02:03:31;;;;;;;;;;;;;;;;;;5071570;28;20265;-76
2022/07/25 02:05:57;;;;;;;;;;;;;;;;;;5071583;28;19925;-76
2022/07/25 02:08:24;;;;;;;;;;;;;;;;;;5071728;28;19925;-76
2022/07/25 02:10:50;;;;;;;;;;;;;;;;;;5074586;28;20039;-77
2022/07/25 02:13:18;;;;;;;;;;;;;;;;;;5076733;28;19925;-76
2022/07/25 02:15:44;;;;;;;;;;;;;;;;;;5076637;28;19924;-77
2022/07/25 02:18:11;;;;;;;;;;;;;;;;;;5080027;28;20412;-76
2022/07/25 02:20:37;;;;;;;;;;;;;;;;;;5079263;28;19999;-77
2022/07/25 02:23:04;;;;;;;;;;;;;;;;;;5078343;28;19925;-77
2022/07/25 02:25:31;;;;;;;;;;;;;;;;;;5078732;28;19924;-77
2022/07/25 02:27:57;;;;;;;;;;;;;;;;;;5077569;28;20023;-77
2022/07/25 02:30:25;;;;;;;;;;;;;;;;;;5077655;28;19946;-77
2022/07/25 02:32:52;;;;;;;;;;;;;;;;;;5077567;28;19932;-76
2022/07/25 02:35:18;;;;;;;;;;;;;;;;;;5077897;28;19960;-77
2022/07/25 02:37:45;;;;;;;;;;;;;;;;;;5077453;28;19924;-77
2022/07/25 02:40:12;;;;;;;;;;;;;;;;;;5077750;28;19946;-76
2022/07/25 02:42:38;;;;;;;;;;;;;;;;;;5078481;28;19924;-76
2022/07/25 02:45:05;;;;;;;;;;;;;;;;;;5074603;28;19933;-76
2022/07/25 02:47:33;;;;;;;;;;;;;;;;;;5074440;28;20310;-77
2022/07/25 02:49:59;;;;;;;;;;;;;;;;;;5075067;28;19932;-75
2022/07/25 02:52:26;;;;;;;;;;;;;;;;;;5074560;28;20417;-77
2022/07/25 02:54:52;;;;;;;;;;;;;;;;;;5074684;28;19924;-76
2022/07/25 02:57:19;;;;;;;;;;;;;;;;;;5074427;28;19924;-76
2022/07/25 02:59:45;;;;;;;;;;;;;;;;;;5074334;28;20411;-76
2022/07/25 03:02:12;;;;;;;;;;;;;;;;;;5074714;28;19967;-75
2022/07/25 03:04:39;;;;;;;;;;;;;;;;;;5074598;28;19954;-76
2022/07/25 03:07:06;;;;;;;;;;;;;;;;;;5074092;28;19928;-75
2022/07/25 03:09:32;;;;;;;;;;;;;;;;;;5074195;28;19950;-75
2022/07/25 03:11:59;;;;;;;;;;;;;;;;;;5074135;28;19930;-76
2022/07/25 03:14:25;;;;;;;;;;;;;;;;;;5074401;28;19925;-76
2022/07/25 03:16:52;;;;;;;;;;;;;;;;;;5074168;28;20016;-76
2022/07/25 03:19:18;;;;;;;;;;;;;;;;;;5074435;28;19924;-76
2022/07/25 03:21:46;;;;;;;;;;;;;;;;;;5073667;28;20015;-75
2022/07/25 03:24:12;;;;;;;;;;;;;;;;;;5073848;28;19930;-75
2022/07/25 03:26:39;;;;;;;;;;;;;;;;;;5073787;28;19924;-75
2022/07/25 03:29:05;;;;;;;;;;;;;;;;;;5074084;28;19932;-76
2022/07/25 03:31:32;;;;;;;;;;;;;;;;;;5073637;28;20335;-76
2022/07/25 03:33:58;;;;;;;;;;;;;;;;;;5073877;28;20019;-76
2022/07/25 03:36:25;;;;;;;;;;;;;;;;;;5073837;28;20020;-76
2022/07/25 03:38:54;;;;;;;;;;;;;;;;;;5075680;28;19966;-76
2022/07/25 03:41:21;;;;;;;;;;;;;;;;;;5078298;28;20276;-76
2022/07/25 03:43:47;;;;;;;;;;;;;;;;;;5074004;28;19924;-76
2022/07/25 03:46:13;;;;;;;;;;;;;;;;;;5073693;28;19924;-76
2022/07/25 03:48:40;;;;;;;;;;;;;;;;;;5073654;28;20497;-76
2022/07/25 03:51:07;;;;;;;;;;;;;;;;;;5073876;28;19924;-76
2022/07/25 03:54:00;;;;;;;;;;;;;;;;;;5073204;28;19924;-77
2022/07/25 03:56:21;;;;;;;;;;;;;;;;;;5073250;28;20367;-77
2022/07/25 03:58:48;;;;;;;;;;;;;;;;;;5073577;28;19928;-77
2022/07/25 04:01:14;;;;;;;;;;;;;;;;;;5088565;28;20016;-77
2022/07/25 04:03:41;;;;;;;;;;;;;;;;;;5093696;28;20007;-77
2022/07/25 04:06:07;;;;;;;;;;;;;;;;;;5093299;28;19931;-75
2022/07/25 04:08:34;;;;;;;;;;;;;;;;;;5093414;28;19924;-76
2022/07/25 04:11:00;;;;;;;;;;;;;;;;;;5093445;28;19924;-76
2022/07/25 04:13:29;;;;;;;;;;;;;;;;;;5093780;28;20011;-77
2022/07/25 04:15:55;;;;;;;;;;;;;;;;;;5093090;28;19994;-77
2022/07/25 04:18:22;;;;;;;;;;;;;;;;;;5093538;28;19965;-77
2022/07/25 04:20:48;;;;;;;;;;;;;;;;;;5093171;28;19924;-78
2022/07/25 04:23:15;;;;;;;;;;;;;;;;;;5096980;28;20444;-78
2022/07/25 04:25:41;;;;;;;;;;;;;;;;;;5096850;28;19986;-77
2022/07/25 04:28:08;;;;;;;;;;;;;;;;;;5096124;28;19977;-76
2022/07/25 04:30:36;;;;;;;;;;;;;;;;;;5093085;28;19932;-77
2022/07/25 04:33:02;;;;;;;;;;;;;;;;;;5092270;28;19924;-76
2022/07/25 04:35:29;;;;;;;;;;;;;;;;;;5092878;28;20039;-76
2022/07/25 04:37:55;;;;;;;;;;;;;;;;;;5092659;28;19959;-77
2022/07/25 04:40:22;;;;;;;;;;;;;;;;;;5093129;28;19997;-76
2022/07/25 04:42:49;;;;;;;;;;;;;;;;;;5137989;22;20023;-80
2022/07/25 04:45:15;;;;;;;;;;;;;;;;;;5114712;28;20468;-78
2022/07/25 04:47:43;;;;;;;;;;;;;;;;;;5113983;28;20361;-80
2022/07/25 04:50:10;;;;;;;;;;;;;;;;;;5114266;28;20359;-78
2022/07/25 04:52:36;;;;;;;;;;;;;;;;;;5114518;28;20007;-78
2022/07/25 04:55:03;;;;;;;;;;;;;;;;;;5116463;28;19987;-78
2022/07/25 04:57:29;;;;;;;;;;;;;;;;;;5118185;28;19963;-77
2022/07/25 04:59:56;;;;;;;;;;;;;;;;;;5118959;28;20011;-76
2022/07/25 05:02:22;;;;;;;;;;;;;;;;;;5104915;28;19924;-77
2022/07/25 05:04:50;;;;;;;;;;;;;;;;;;5104804;28;19956;-76
2022/07/25 05:07:16;;;;;;;;;;;;;;;;;;5096897;28;19931;-78
2022/07/25 05:09:43;;;;;;;;;;;;;;;;;;5094250;28;19924;-79
2022/07/25 05:12:09;;;;;;;;;;;;;;;;;;5094491;28;19975;-78
2022/07/25 05:14:36;;;;;;;;;;;;;;;;;;5095434;28;19974;-79
2022/07/25 05:17:02;;;;;;;;;;;;;;;;;;5113179;28;19915;-77
2022/07/25 05:19:29;;;;;;;;;;;;;;;;;;5118361;28;19920;-78
2022/07/25 05:21:57;;;;;;;;;;;;;;;;;;5111306;28;19955;-79
2022/07/25 05:24:23;;;;;;;;;;;;;;;;;;5096342;28;19991;-78
2022/07/25 05:26:50;;;;;;;;;;;;;;;;;;5094885;28;19927;-79
2022/07/25 05:29:16;;;;;;;;;;;;;;;;;;5095419;28;19928;-79
2022/07/25 05:31:43;;;;;;;;;;;;;;;;;;5095082;28;19955;-78
2022/07/25 05:34:09;;;;;;;;;;;;;;;;;;5095008;28;20343;-78
2022/07/25 05:36:36;;;;;;;;;;;;;;;;;;5094395;28;20035;-78
2022/07/25 05:39:04;;;;;;;;;;;;;;;;;;5094169;28;20419;-79
2022/07/25 05:41:30;;;;;;;;;;;;;;;;;;5093777;28;20449;-78
2022/07/25 05:43:57;;;;;;;;;;;;;;;;;;5094169;28;19978;-79
2022/07/25 05:46:23;;;;;;;;;;;;;;;;;;5097569;28;19963;-78
2022/07/25 05:48:50;;;;;;;;;;;;;;;;;;5100319;28;19924;-77
2022/07/25 05:51:16;;;;;;;;;;;;;;;;;;5105748;28;19957;-78
2022/07/25 05:53:43;;;;;;;;;;;;;;;;;;5099200;28;19924;-78
2022/07/25 05:56:11;;;;;;;;;;;;;;;;;;5098678;28;19928;-78
2022/07/25 05:58:39;;;;;;;;;;;;;;;;;;5100438;28;19964;-78
2022/07/25 06:01:06;;;;;;;;;;;;;;;;;;5084094;28;20027;-78
2022/07/25 06:03:33;;;;;;;;;;;;;;;;;;5076808;28;19925;-80
2022/07/25 06:05:59;;;;;;;;;;;;;;;;;;5075486;28;19925;-79
2022/07/25 06:08:27;;;;;;;;;;;;;;;;;;5077836;28;19967;-78
2022/07/25 06:10:54;;;;;;;;;;;;;;;;;;5077963;28;20348;-78
2022/07/25 06:13:21;;;;;;;;;;;;;;;;;;5077857;28;19970;-79
2022/07/25 06:15:48;;;;;;;;;;;;;;;;;;5078265;28;20007;-80
2022/07/25 06:18:14;;;;;;;;;;;;;;;;;;5080656;28;19924;-79
2022/07/25 06:20:41;;;;;;;;;;;;;;;;;;5079580;28;19964;-79
2022/07/25 06:23:07;;;;;;;;;;;;;;;;;;5079592;28;20383;-79
2022/07/25 06:25:34;;;;;;;;;;;;;;;;;;5078500;28;19977;-78
2022/07/25 06:28:01;;;;;;;;;;;;;;;;;;5078946;28;19964;-79
2022/07/25 06:30:28;;;;;;;;;;;;;;;;;;5080310;28;19931;-79
2022/07/25 06:32:55;;;;;;;;;;;;;;;;;;5079957;28;19955;-79
2022/07/25 06:35:21;;;;;;;;;;;;;;;;;;5081317;28;20482;-80
2022/07/25 06:37:48;;;;;;;;;;;;;;;;;;5081548;28;19932;-79
2022/07/25 06:40:14;;;;;;;;;;;;;;;;;;5082193;28;20026;-79
2022/07/25 06:42:42;;;;;;;;;;;;;;;;;;5081728;28;19955;-79
2022/07/25 06:45:09;;;;;;;;;;;;;;;;;;5081562;28;19967;-79
2022/07/25 06:47:37;;;;;;;;;;;;;;;;;;5082142;28;19975;-79
2022/07/25 06:50:04;;;;;;;;;;;;;;;;;;5082063;28;20362;-79
2022/07/25 06:52:31;;;;;;;;;;;;;;;;;;5082331;28;20394;-78
2022/07/25 06:54:58;;;;;;;;;;;;;;;;;;5082079;28;20263;-78
2022/07/25 06:57:24;;;;;;;;;;;;;;;;;;5080741;28;20363;-79
2022/07/25 06:59:51;;;;;;;;;;;;;;;;;;5082623;28;19990;-79
2022/07/25 07:02:17;;;;;;;;;;;;;;;;;;5081165;28;20349;-79
2022/07/25 07:04:45;;;;;;;;;;;;;;;;;;5083814;28;20000;-78
2022/07/25 07:07:11;;;;;;;;;;;;;;;;;;5078668;28;19973;-78
2022/07/25 07:09:38;;;;;;;;;;;;;;;;;;5078798;28;19972;-79
2022/07/25 07:12:04;;;;;;;;;;;;;;;;;;5083130;28;19960;-79
2022/07/25 07:14:31;;;;;;;;;;;;;;;;;;5085216;28;19951;-78
2022/07/25 07:16:57;;;;;;;;;;;;;;;;;;5083959;28;20605;-80
2022/07/25 07:19:24;;;;;;;;;;;;;;;;;;5114488;28;20381;-78
2022/07/25 07:21:52;;;;;;;;;;;;;;;;;;5118895;28;19924;-79
2022/07/25 07:24:18;;;;;;;;;;;;;;;;;;5118791;28;19978;-79
2022/07/25 07:26:45;;;;;;;;;;;;;;;;;;5118448;28;20514;-80
2022/07/25 07:29:11;;;;;;;;;;;;;;;;;;5120527;28;19991;-78
2022/07/25 07:31:38;;;;;;;;;;;;;;;;;;5120559;28;19924;-79
2022/07/25 07:34:04;;;;;;;;;;;;;;;;;;5120508;28;19934;-78
2022/07/25 07:36:31;;;;;;;;;;;;;;;;;;5121335;28;19974;-79
2022/07/25 07:38:58;;;;;;;;;;;;;;;;;;5093872;28;20027;-79
2022/07/25 07:41:25;;;;;;;;;;;;;;;;;;5077198;28;19924;-80
2022/07/25 07:43:51;;;;;;;;;;;;;;;;;;5076948;28;20014;-79
2022/07/25 07:46:18;;;;;;;;;;;;;;;;;;5076717;28;19928;-79
2022/07/25 07:48:44;;;;;;;;;;;;;;;;;;5077337;28;20012;-80
2022/07/25 07:51:11;;;;;;;;;;;;;;;;;;5076426;28;19960;-79
2022/07/25 07:56:19;;;;;;;;;;;;;;;;;;5030839;28;19955;-78
2022/07/25 07:58:45;;;;;;;;;;;;;;;;;;5075916;28;20010;-79
2022/07/25 08:01:12;;;;;;;;;;;;;;;;;;5076501;28;20011;-79
2022/07/25 08:03:38;;;;;;;;;;;;;;;;;;5076450;28;19968;-77
2022/07/25 08:06:05;;;;;;;;;;;;;;;;;;5075468;28;20399;-80
2022/07/25 08:08:32;;;;;;;;;;;;;;;;;;5076146;28;20127;-79
2022/07/25 08:10:58;;;;;;;;;;;;;;;;;;5075766;28;19970;-78
2022/07/25 08:13:28;;;;;;;;;;;;;;;;;;5077464;28;19931;-78
2022/07/25 08:15:57;;;;;;;;;;;;;;;;;;5088342;28;19930;-80
2022/07/25 08:18:24;;;;;;;;;;;;;;;;;;5096423;28;19951;-77
2022/07/25 08:20:51;;;;;;;;;;;;;;;;;;5095365;28;20442;-80
2022/07/25 08:23:17;;;;;;;;;;;;;;;;;;5096434;28;20011;-80
2022/07/25 08:25:44;;;;;;;;;;;;;;;;;;5094302;28;19982;-79
2022/07/25 08:28:11;;;;;;;;;;;;;;;;;;5095005;28;19967;-79
2022/07/25 08:30:40;;;;;;;;;;;;;;;;;;5096167;28;19924;-80
2022/07/25 08:33:08;;;;;;;;;;;;;;;;;;5081276;28;19924;-78
2022/07/25 08:35:35;;;;;;;;;;;;;;;;;;5075651;28;19924;-78
2022/07/25 08:38:02;;;;;;;;;;;;;;;;;;5076174;28;19971;-77
2022/07/25 08:40:29;;;;;;;;;;;;;;;;;;5075586;28;20043;-79
2022/07/25 08:42:57;;;;;;;;;;;;;;;;;;5074544;28;20008;-78
2022/07/25 08:45:24;;;;;;;;;;;;;;;;;;5075572;28;19925;-75
2022/07/25 08:47:53;;;;;;;;;;;;;;;;;;5073971;28;19963;-79
2022/07/25 08:50:24;;;;;;;;;;;;;;;;;;5076005;28;20012;-78
2022/07/25 08:52:51;;;;;;;;;;;;;;;;;;5078516;28;19924;-79
2022/07/25 08:55:19;;;;;;;;;;;;;;;;;;5077331;28;19928;-78
2022/07/25 08:57:46;;;;;;;;;;;;;;;;;;5073496;28;19924;-79
2022/07/25 09:00:15;;;;;;;;;;;;;;;;;;5078598;28;19970;-78
2022/07/25 09:02:42;;;;;;;;;;;;;;;;;;5085762;28;19925;-78
2022/07/25 09:05:10;;;;;;;;;;;;;;;;;;5095390;28;19978;-78
2022/07/25 09:07:37;;;;;;;;;;;;;;;;;;5094573;28;19963;-77
2022/07/25 09:10:14;;;;;;;;;;;;;;;;;;5093671;28;20499;-78
2022/07/25 09:12:41;;;;;;;;;;;;;;;;;;5092938;28;20038;-77
2022/07/25 09:15:08;;;;;;;;;;;;;;;;;;5081853;28;19950;-77
2022/07/25 09:17:35;;;;;;;;;;;;;;;;;;5070934;28;19925;-77
2022/07/25 09:20:03;;;;;;;;;;;;;;;;;;5073953;28;19970;-77
2022/07/25 09:22:31;;;;;;;;;;;;;;;;;;5077430;28;19924;-78
2022/07/25 09:24:58;;;;;;;;;;;;;;;;;;5094395;28;19928;-78
2022/07/25 09:27:24;;;;;;;;;;;;;;;;;;5102686;28;20438;-78
2022/07/25 09:29:51;;;;;;;;;;;;;;;;;;5098639;28;20034;-78
2022/07/25 09:32:19;;;;;;;;;;;;;;;;;;5090879;28;19928;-77
2022/07/25 09:34:46;;;;;;;;;;;;;;;;;;5093778;28;19974;-77
2022/07/25 09:37:14;;;;;;;;;;;;;;;;;;5081221;28;19925;-80
2022/07/25 09:39:43;;;;;;;;;;;;;;;;;;5088014;28;19938;-79
2022/07/25 09:42:20;;;;;;;;;;;;;;;;;;5091338;28;19924;-79
2022/07/25 09:45:04;;;;;;;;;;;;;;;;;;5094984;28;19931;-80
2022/07/25 09:47:31;;;;;;;;;;;;;;;;;;5092512;28;20488;-77
2022/07/25 09:49:57;;;;;;;;;;;;;;;;;;5090691;28;19943;-79
2022/07/25 09:52:24;;;;;;;;;;;;;;;;;;5090875;28;19982;-78
2022/07/25 09:54:53;;;;;;;;;;;;;;;;;;5090678;28;19924;-77
2022/07/25 09:57:20;;;;;;;;;;;;;;;;;;5090437;28;20348;-77
2022/07/25 09:59:46;;;;;;;;;;;;;;;;;;5092240;28;19924;-76
2022/07/25 10:02:17;;;;;;;;;;;;;;;;;;5114469;28;19909;-77
2022/07/25 10:04:46;;;;;;;;;;;;;;;;;;5117343;28;19924;-76
2022/07/25 10:07:34;;;;;;;;;;;;;;;;;;5110683;28;19938;-80
2022/07/25 10:10:02;;;;;;;;;;;;;;;;;;5093112;28;19931;-77
2022/07/25 10:12:28;;;;;;;;;;;;;;;;;;5078708;28;19974;-76
2022/07/25 10:15:05;;;;;;;;;;;;;;;;;;5072086;28;19925;-77
2022/07/25 10:17:32;;;;;;;;;;;;;;;;;;5069644;28;19972;-77
2022/07/25 10:20:00;;;;;;;;;;;;;;;;;;5069803;28;19944;-75
2022/07/25 10:22:35;;;;;;;;;;;;;;;;;;5070246;28;19925;-77
2022/07/25 10:25:10;;;;;;;;;;;;;;;;;;5069947;28;19925;-76
2022/07/25 10:27:41;;;;;;;;;;;;;;;;;;5069886;28;19982;-76
2022/07/25 10:30:10;;;;;;;;;;;;;;;;;;5069853;28;19924;-77
2022/07/25 10:32:36;;;;;;;;;;;;;;;;;;5072573;28;20011;-76
2022/07/25 10:35:12;;;;;;;;;;;;;;;;;;5073287;28;20199;-77
2022/07/25 10:37:39;;;;;;;;;;;;;;;;;;5073595;28;19987;-76
2022/07/25 10:40:08;;;;;;;;;;;;;;;;;;5073026;28;19933;-77
2022/07/25 10:45:04;;;;;;;;;;;;;;;;;;5089802;28;20366;-77
2022/07/25 10:47:36;;;;;;;;;;;;;;;;;;5094723;28;19970;-78
2022/07/25 10:50:03;;;;;;;;;;;;;;;;;;5096540;28;19924;-77
2022/07/25 10:52:30;;;;;;;;;;;;;;;;;;5097703;28;19924;-77
2022/07/25 10:54:57;;;;;;;;;;;;;;;;;;5096872;28;20433;-78
2022/07/25 10:57:26;;;;;;;;;;;;;;;;;;5096988;28;19970;-77
2022/07/25 10:59:52;;;;;;;;;;;;;;;;;;5095904;28;19924;-77
2022/07/25 11:02:19;;;;;;;;;;;;;;;;;;5098944;28;20023;-77
2022/07/25 11:04:46;;;;;;;;;;;;;;;;;;5097213;28;19924;-79
2022/07/25 11:07:14;;;;;;;;;;;;;;;;;;5098331;28;19928;-78
2022/07/25 11:09:41;;;;;;;;;;;;;;;;;;5098153;28;19984;-81
2022/07/25 11:12:08;;;;;;;;;;;;;;;;;;5098306;28;19973;-81
2022/07/25 11:14:36;;;;;;;;;;;;;;;;;;5097211;28;19970;-77
2022/07/25 11:17:10;;;;;;;;;;;;;;;;;;5095314;28;20003;-78
2022/07/25 11:19:37;;;;;;;;;;;;;;;;;;5074612;28;19976;-77
2022/07/25 11:22:04;;;;;;;;;;;;;;;;;;5074516;28;19924;-77
2022/07/25 11:24:34;;;;;;;;;;;;;;;;;;5075528;28;19931;-77
2022/07/25 11:27:01;;;;;;;;;;;;;;;;;;5076495;28;19956;-77
2022/07/25 11:29:27;;;;;;;;;;;;;;;;;;5075998;28;20005;-77
2022/07/25 11:31:57;;;;;;;;;;;;;;;;;;5074071;28;19925;-77
2022/07/25 11:34:25;;;;;;;;;;;;;;;;;;5073074;28;19929;-80
2022/07/25 11:36:54;;;;;;;;;;;;;;;;;;5072744;28;20405;-76
2022/07/25 11:39:20;;;;;;;;;;;;;;;;;;5078291;28;19932;-79
2022/07/25 11:41:47;;;;;;;;;;;;;;;;;;5077695;28;20339;-80
2022/07/25 11:44:13;;;;;;;;;;;;;;;;;;5074605;28;19924;-79
2022/07/25 11:46:43;;;;;;;;;;;;;;;;;;5076846;28;19925;-78
2022/07/25 11:49:11;;;;;;;;;;;;;;;;;;5080143;28;19924;-78
2022/07/25 11:51:38;;;;;;;;;;;;;;;;;;5078247;28;19932;-79
2022/07/25 11:54:09;;;;;;;;;;;;;;;;;;5076138;28;19977;-80
2022/07/25 11:56:40;;;;;;;;;;;;;;;;;;5074679;28;19924;-78
2022/07/25 11:59:06;;;;;;;;;;;;;;;;;;5073260;28;20007;-78
2022/07/25 12:01:34;;;;;;;;;;;;;;;;;;5094838;28;19983;-80
2022/07/25 12:04:07;;;;;;;;;;;;;;;;;;5097562;28;19930;-76
2022/07/25 12:06:35;;;;;;;;;;;;;;;;;;5093732;28;20453;-75
2022/07/25 12:09:09;;;;;;;;;;;;;;;;;;5096992;28;20382;-77
2022/07/25 12:11:36;;;;;;;;;;;;;;;;;;5092381;28;19930;-77
2022/07/25 12:14:03;;;;;;;;;;;;;;;;;;5094796;28;19988;-78
2022/07/25 12:16:29;;;;;;;;;;;;;;;;;;5091847;28;19924;-78
2022/07/25 12:18:56;;;;;;;;;;;;;;;;;;5094781;28;19982;-78
2022/07/25 12:21:22;;;;;;;;;;;;;;;;;;5100521;28;19955;-78
2022/07/25 12:23:50;;;;;;;;;;;;;;;;;;5100344;28;20007;-78
2022/07/25 12:26:17;;;;;;;;;;;;;;;;;;5093505;28;19963;-77
2022/07/25 12:28:43;;;;;;;;;;;;;;;;;;5092350;28;20001;-78
2022/07/25 12:31:10;;;;;;;;;;;;;;;;;;5097995;28;20367;-77
2022/07/25 12:33:36;;;;;;;;;;;;;;;;;;5091634;28;20437;-79
2022/07/25 12:36:03;;;;;;;;;;;;;;;;;;5092204;28;19979;-77
2022/07/25 12:38:29;;;;;;;;;;;;;;;;;;5092727;28;19964;-77
2022/07/25 12:40:57;;;;;;;;;;;;;;;;;;5091130;28;19971;-76
2022/07/25 12:43:24;;;;;;;;;;;;;;;;;;5091393;28;19971;-77
2022/07/25 12:45:50;;;;;;;;;;;;;;;;;;5092611;28;19955;-78
2022/07/25 12:48:17;;;;;;;;;;;;;;;;;;5097593;28;19991;-79
2022/07/25 12:50:44;;;;;;;;;;;;;;;;;;5101671;28;19931;-79
2022/07/25 12:53:12;;;;;;;;;;;;;;;;;;5097280;28;19967;-77
2022/07/25 12:55:38;;;;;;;;;;;;;;;;;;5094955;28;19924;-77
2022/07/25 12:58:07;;;;;;;;;;;;;;;;;;5096047;28;19963;-77
2022/07/25 13:00:34;;;;;;;;;;;;;;;;;;5093295;28;19924;-76
2022/07/25 13:03:00;;;;;;;;;;;;;;;;;;5071250;28;19924;-77
2022/07/25 13:05:27;;;;;;;;;;;;;;;;;;5075983;28;20548;-78
2022/07/25 13:07:54;;;;;;;;;;;;;;;;;;5077470;28;20390;-76
2022/07/25 13:10:20;;;;;;;;;;;;;;;;;;5094790;28;19925;-77
2022/07/25 13:12:47;;;;;;;;;;;;;;;;;;5094201;28;19971;-77
2022/07/25 13:15:16;;;;;;;;;;;;;;;;;;5097791;28;20031;-77
2022/07/25 13:17:43;;;;;;;;;;;;;;;;;;5092128;28;19928;-76
2022/07/25 13:20:10;;;;;;;;;;;;;;;;;;5091803;28;19924;-78
2022/07/25 13:22:38;;;;;;;;;;;;;;;;;;5101857;28;19924;-77
2022/07/25 13:25:05;;;;;;;;;;;;;;;;;;5098066;28;19924;-78
2022/07/25 13:27:31;;;;;;;;;;;;;;;;;;5099430;28;19924;-76
2022/07/25 13:29:57;;;;;;;;;;;;;;;;;;5098110;28;19963;-79
2022/07/25 13:32:27;;;;;;;;;;;;;;;;;;5099050;28;19924;-79
2022/07/25 13:34:53;;;;;;;;;;;;;;;;;;5091291;28;19924;-78
2022/07/25 13:37:20;;;;;;;;;;;;;;;;;;5090742;28;19977;-78
2022/07/25 13:39:47;;;;;;;;;;;;;;;;;;5092977;28;19946;-78
2022/07/25 13:42:13;;;;;;;;;;;;;;;;;;5090474;28;19971;-78
2022/07/25 13:44:39;;;;;;;;;;;;;;;;;;5076854;28;19971;-78
2022/07/25 13:47:06;;;;;;;;;;;;;;;;;;5069864;28;19976;-77
2022/07/25 13:49:35;;;;;;;;;;;;;;;;;;5070368;28;20019;-80
2022/07/25 13:52:02;;;;;;;;;;;;;;;;;;5071542;28;19931;-78
2022/07/25 13:54:28;;;;;;;;;;;;;;;;;;5074007;28;19924;-81
2022/07/25 13:56:55;;;;;;;;;;;;;;;;;;5075450;28;19924;-77
2022/07/25 13:59:21;;;;;;;;;;;;;;;;;;5075398;28;19924;-77
2022/07/25 14:01:53;;;;;;;;;;;;;;;;;;5092605;28;19963;-76
2022/07/25 14:04:19;;;;;;;;;;;;;;;;;;5093490;28;19924;-78
2022/07/25 14:06:50;;;;;;;;;;;;;;;;;;5095455;28;20290;-77
2022/07/25 14:09:19;;;;;;;;;;;;;;;;;;5098185;28;19946;-80
2022/07/25 14:11:45;;;;;;;;;;;;;;;;;;5101931;28;19924;-79
2022/07/25 14:14:12;;;;;;;;;;;;;;;;;;5077836;28;19971;-78
2022/07/25 14:16:38;;;;;;;;;;;;;;;;;;5085377;28;19932;-78
2022/07/25 14:19:05;;;;;;;;;;;;;;;;;;5080938;28;19956;-78
2022/07/25 14:21:31;;;;;;;;;;;;;;;;;;5075675;28;20589;-78
2022/07/25 14:23:58;;;;;;;;;;;;;;;;;;5092477;28;19932;-79
2022/07/25 14:26:27;;;;;;;;;;;;;;;;;;5095129;28;20397;-77
2022/07/25 14:28:54;;;;;;;;;;;;;;;;;;5094489;28;19924;-77
2022/07/25 14:31:21;;;;;;;;;;;;;;;;;;5093926;28;20440;-79
2022/07/25 14:33:47;;;;;;;;;;;;;;;;;;5097826;28;19924;-79
2022/07/25 14:36:14;;;;;;;;;;;;;;;;;;5097080;28;19928;-79
2022/07/25 14:38:40;;;;;;;;;;;;;;;;;;5096454;28;19975;-78
2022/07/25 14:41:07;;;;;;;;;;;;;;;;;;5076397;28;20402;-78
2022/07/25 14:43:35;;;;;;;;;;;;;;;;;;5074994;28;19976;-79
2022/07/25 14:46:06;;;;;;;;;;;;;;;;;;5078303;28;19958;-79
2022/07/25 14:48:34;;;;;;;;;;;;;;;;;;5076554;28;19924;-79
2022/07/25 14:51:02;;;;;;;;;;;;;;;;;;5075067;28;20015;-79
2022/07/25 14:53:29;;;;;;;;;;;;;;;;;;5077763;28;19932;-79
2022/07/25 14:55:55;;;;;;;;;;;;;;;;;;5077290;28;19956;-79
2022/07/25 14:58:22;;;;;;;;;;;;;;;;;;5074812;28;19924;-79
2022/07/25 15:00:50;;;;;;;;;;;;;;;;;;5075989;28;19956;-79
2022/07/25 15:03:16;;;;;;;;;;;;;;;;;;5077304;28;19974;-77
2022/07/25 15:05:43;;;;;;;;;;;;;;;;;;5074991;28;20395;-79
2022/07/25 15:08:11;;;;;;;;;;;;;;;;;;5075476;28;19924;-78
2022/07/25 15:10:37;;;;;;;;;;;;;;;;;;5073691;28;19964;-78
2022/07/25 15:13:04;;;;;;;;;;;;;;;;;;5073608;28;19928;-77
2022/07/25 15:15:30;;;;;;;;;;;;;;;;;;5073385;28;19935;-78
2022/07/25 15:17:58;;;;;;;;;;;;;;;;;;5073663;28;19925;-78
2022/07/25 15:20:25;;;;;;;;;;;;;;;;;;5075209;28;19924;-79
2022/07/25 15:22:51;;;;;;;;;;;;;;;;;;5082983;28;20209;-77
2022/07/25 15:25:18;;;;;;;;;;;;;;;;;;5084472;28;20026;-77
2022/07/25 15:27:44;;;;;;;;;;;;;;;;;;5098167;28;20007;-77
2022/07/25 15:30:11;;;;;;;;;;;;;;;;;;5094885;28;19978;-77
2022/07/25 15:32:39;;;;;;;;;;;;;;;;;;5094786;28;20011;-77
2022/07/25 15:35:08;;;;;;;;;;;;;;;;;;5093343;28;19972;-78
2022/07/25 15:37:34;;;;;;;;;;;;;;;;;;5092391;28;19928;-78
2022/07/25 15:40:01;;;;;;;;;;;;;;;;;;5093930;28;20364;-78
2022/07/25 15:42:27;;;;;;;;;;;;;;;;;;5093204;28;19971;-79
2022/07/25 15:44:54;;;;;;;;;;;;;;;;;;5094082;28;20289;-78
2022/07/25 15:47:20;;;;;;;;;;;;;;;;;;5096989;28;19930;-77
2022/07/25 15:49:47;;;;;;;;;;;;;;;;;;5093072;28;19928;-79
2022/07/25 15:52:14;;;;;;;;;;;;;;;;;;5088329;28;19930;-78
2022/07/25 15:54:41;;;;;;;;;;;;;;;;;;5092668;28;20023;-78
2022/07/25 15:57:07;;;;;;;;;;;;;;;;;;5093861;28;20023;-78
2022/07/25 15:59:34;;;;;;;;;;;;;;;;;;5092634;28;20414;-80
2022/07/25 16:02:00;;;;;;;;;;;;;;;;;;5073518;28;20184;-79
2022/07/25 16:04:27;;;;;;;;;;;;;;;;;;5075728;28;19931;-79
2022/07/25 16:06:53;;;;;;;;;;;;;;;;;;5072745;28;19971;-79
2022/07/25 16:09:21;;;;;;;;;;;;;;;;;;5073610;28;19924;-78
2022/07/25 16:11:47;;;;;;;;;;;;;;;;;;5073955;28;20031;-79
2022/07/25 16:14:14;;;;;;;;;;;;;;;;;;5073435;28;20019;-78
2022/07/25 16:16:42;;;;;;;;;;;;;;;;;;5073389;28;20019;-78
2022/07/25 16:19:09;;;;;;;;;;;;;;;;;;5079662;28;19974;-80
2022/07/25 16:21:35;;;;;;;;;;;;;;;;;;5075325;28;19982;-79
2022/07/25 16:24:02;;;;;;;;;;;;;;;;;;5079256;28;19925;-79
2022/07/25 16:26:30;;;;;;;;;;;;;;;;;;5077373;28;19948;-78
2022/07/25 16:28:56;;;;;;;;;;;;;;;;;;5070655;28;19925;-77
2022/07/25 16:31:22;;;;;;;;;;;;;;;;;;5072033;28;20015;-79
2022/07/25 16:33:49;;;;;;;;;;;;;;;;;;5080045;28;19932;-78
2022/07/25 16:36:15;;;;;;;;;;;;;;;;;;5081211;28;19951;-77
2022/07/25 16:38:44;;;;;;;;;;;;;;;;;;5073158;28;19924;-75
2022/07/25 16:41:10;;;;;;;;;;;;;;;;;;5077369;28;19924;-78
2022/07/25 16:43:38;;;;;;;;;;;;;;;;;;5077970;28;20016;-79
2022/07/25 16:46:06;;;;;;;;;;;;;;;;;;5117824;22;19928;-77
2022/07/25 16:48:32;;;;;;;;;;;;;;;;;;5090989;28;19971;-76
2022/07/25 16:50:59;;;;;;;;;;;;;;;;;;5091164;28;19928;-77
2022/07/25 16:53:26;;;;;;;;;;;;;;;;;;5092124;28;19959;-77